sensor_id;sensor_type;location;lat;lon;timestamp;P1;durP1;ratioP1;P2;durP2;ratioP2
66957;SDS011;53892;43.258;-2.932;2022-11-20T00:01:50;1.73;;;0.20;;
66957;SDS011;53892;43.258;-2.932;2022-11-20T00:04:16;3.53;;;0.20;;
66957;SDS011;53892;43.258;-2.932;2022-11-20T00:06:42;3.72;;;0.20;;
66957;SDS011;53892;43.258;-2.932;2022-11-20T00:09:09;0.65;;;0.20;;
66957;SDS011;53892;43.258;-2.932;2022-11-20T00:11:35;1.10;;;0.20;;
66957;SDS011;53892;43.258;-2.932;2022-11-20T00:14:02;1.98;;;0.20;;
66957;SDS011;53892;43.258;-2.932;2022-11-20T00:16:30;2.05;;;0.30;;
66957;SDS011;53892;43.258;-2.932;2022-11-20T00:18:56;0.50;;;0.10;;
66957;SDS011;53892;43.258;-2.932;2022-11-20T00:21:26;0.70;;;0.10;;
66957;SDS011;53892;43.258;-2.932;2022-11-20T00:23:53;0.15;;;0.10;;
66957;SDS011;53892;43.258;-2.932;2022-11-20T00:26:20;1.05;;;0.20;;
66957;SDS011;53892;43.258;-2.932;2022-11-20T00:28:50;1.70;;;0.20;;
66957;SDS011;53892;43.258;-2.932;2022-11-20T00:31:17;0.47;;;0.10;;
66957;SDS011;53892;43.258;-2.932;2022-11-20T00:33:43;2.15;;;0.20;;
66957;SDS011;53892;43.258;-2.932;2022-11-20T00:36:13;0.77;;;0.20;;
66957;SDS011;53892;43.258;-2.932;2022-11-20T00:38:40;5.25;;;0.28;;
66957;SDS011;53892;43.258;-2.932;2022-11-20T00:41:08;1.88;;;0.20;;
66957;SDS011;53892;43.258;-2.932;2022-11-20T00:43:34;2.55;;;0.20;;
66957;SDS011;53892;43.258;-2.932;2022-11-20T00:46:01;4.75;;;0.13;;
66957;SDS011;53892;43.258;-2.932;2022-11-20T00:48:27;1.80;;;0.20;;
66957;SDS011;53892;43.258;-2.932;2022-11-20T00:50:53;1.17;;;0.20;;
66957;SDS011;53892;43.258;-2.932;2022-11-20T00:53:20;3.42;;;0.35;;
66957;SDS011;53892;43.258;-2.932;2022-11-20T00:56:05;0.30;;;0.17;;
66957;SDS011;53892;43.258;-2.932;2022-11-20T00:58:32;2.28;;;0.63;;
66957;SDS011;53892;43.258;-2.932;2022-11-20T01:00:59;1.92;;;1.05;;
66957;SDS011;53892;43.258;-2.932;2022-11-20T01:03:26;0.35;;;0.10;;
66957;SDS011;53892;43.258;-2.932;2022-11-20T01:05:52;1.27;;;0.20;;
66957;SDS011;53892;43.258;-2.932;2022-11-20T01:08:18;0.55;;;0.10;;
66957;SDS011;53892;43.258;-2.932;2022-11-20T01:10:44;0.40;;;0.10;;
66957;SDS011;53892;43.258;-2.932;2022-11-20T01:13:10;0.80;;;0.20;;
66957;SDS011;53892;43.258;-2.932;2022-11-20T01:15:55;5.25;;;0.10;;
66957;SDS011;53892;43.258;-2.932;2022-11-20T01:18:21;1.60;;;0.10;;
66957;SDS011;53892;43.258;-2.932;2022-11-20T01:20:47;0.30;;;0.10;;
66957;SDS011;53892;43.258;-2.932;2022-11-20T01:23:13;0.30;;;0.03;;
66957;SDS011;53892;43.258;-2.932;2022-11-20T01:25:39;0.25;;;0.20;;
66957;SDS011;53892;43.258;-2.932;2022-11-20T01:28:05;1.55;;;0.13;;
66957;SDS011;53892;43.258;-2.932;2022-11-20T01:30:31;1.23;;;0.10;;
66957;SDS011;53892;43.258;-2.932;2022-11-20T01:32:58;0.40;;;0.10;;
66957;SDS011;53892;43.258;-2.932;2022-11-20T01:35:24;0.55;;;0.15;;
66957;SDS011;53892;43.258;-2.932;2022-11-20T01:37:50;0.70;;;0.10;;
66957;SDS011;53892;43.258;-2.932;2022-11-20T01:40:16;0.28;;;0.10;;
66957;SDS011;53892;43.258;-2.932;2022-11-20T01:42:47;1.30;;;0.10;;
66957;SDS011;53892;43.258;-2.932;2022-11-20T01:48:02;1.80;;;0.35;;
66957;SDS011;53892;43.258;-2.932;2022-11-20T01:50:28;0.47;;;0.17;;
66957;SDS011;53892;43.258;-2.932;2022-11-20T01:52:56;3.08;;;0.35;;
66957;SDS011;53892;43.258;-2.932;2022-11-20T01:55:25;2.25;;;0.20;;
66957;SDS011;53892;43.258;-2.932;2022-11-20T01:57:51;0.98;;;0.30;;
66957;SDS011;53892;43.258;-2.932;2022-11-20T02:00:18;0.60;;;0.10;;
66957;SDS011;53892;43.258;-2.932;2022-11-20T02:02:49;2.85;;;0.60;;
66957;SDS011;53892;43.258;-2.932;2022-11-20T02:07:42;1.17;;;0.40;;
66957;SDS011;53892;43.258;-2.932;2022-11-20T02:10:09;0.47;;;0.13;;
66957;SDS011;53892;43.258;-2.932;2022-11-20T02:12:35;0.35;;;0.10;;
66957;SDS011;53892;43.258;-2.932;2022-11-20T02:15:20;1.33;;;0.20;;
66957;SDS011;53892;43.258;-2.932;2022-11-20T02:17:46;2.83;;;0.40;;
66957;SDS011;53892;43.258;-2.932;2022-11-20T02:20:12;0.90;;;0.20;;
66957;SDS011;53892;43.258;-2.932;2022-11-20T02:22:41;1.20;;;0.20;;
66957;SDS011;53892;43.258;-2.932;2022-11-20T02:25:11;2.28;;;0.20;;
66957;SDS011;53892;43.258;-2.932;2022-11-20T02:27:37;0.45;;;0.10;;
66957;SDS011;53892;43.258;-2.932;2022-11-20T02:30:04;0.40;;;0.30;;
66957;SDS011;53892;43.258;-2.932;2022-11-20T02:32:36;1.30;;;0.10;;
66957;SDS011;53892;43.258;-2.932;2022-11-20T02:37:43;0.85;;;0.17;;
66957;SDS011;53892;43.258;-2.932;2022-11-20T02:40:10;0.40;;;0.20;;
66957;SDS011;53892;43.258;-2.932;2022-11-20T02:42:37;0.40;;;0.10;;
66957;SDS011;53892;43.258;-2.932;2022-11-20T02:45:04;1.17;;;0.22;;
66957;SDS011;53892;43.258;-2.932;2022-11-20T02:47:30;2.35;;;0.10;;
66957;SDS011;53892;43.258;-2.932;2022-11-20T02:49:56;1.90;;;0.30;;
66957;SDS011;53892;43.258;-2.932;2022-11-20T02:52:22;2.60;;;0.95;;
66957;SDS011;53892;43.258;-2.932;2022-11-20T02:54:48;0.10;;;0.00;;
66957;SDS011;53892;43.258;-2.932;2022-11-20T02:57:14;1.23;;;0.30;;
66957;SDS011;53892;43.258;-2.932;2022-11-20T02:59:40;0.22;;;0.03;;
66957;SDS011;53892;43.258;-2.932;2022-11-20T03:02:06;0.38;;;0.10;;
66957;SDS011;53892;43.258;-2.932;2022-11-20T03:04:33;0.40;;;0.10;;
66957;SDS011;53892;43.258;-2.932;2022-11-20T03:06:59;1.20;;;0.10;;
66957;SDS011;53892;43.258;-2.932;2022-11-20T03:09:25;0.38;;;0.10;;
66957;SDS011;53892;43.258;-2.932;2022-11-20T03:11:51;0.82;;;0.05;;
66957;SDS011;53892;43.258;-2.932;2022-11-20T03:14:17;0.22;;;0.10;;
66957;SDS011;53892;43.258;-2.932;2022-11-20T03:16:43;0.35;;;0.10;;
66957;SDS011;53892;43.258;-2.932;2022-11-20T03:19:09;0.57;;;0.10;;
66957;SDS011;53892;43.258;-2.932;2022-11-20T03:21:36;0.60;;;0.05;;
66957;SDS011;53892;43.258;-2.932;2022-11-20T03:24:03;3.42;;;0.10;;
66957;SDS011;53892;43.258;-2.932;2022-11-20T03:26:29;0.68;;;0.10;;
66957;SDS011;53892;43.258;-2.932;2022-11-20T03:28:56;0.50;;;0.10;;
66957;SDS011;53892;43.258;-2.932;2022-11-20T03:31:29;0.10;;;0.00;;
66957;SDS011;53892;43.258;-2.932;2022-11-20T03:33:56;0.82;;;0.00;;
66957;SDS011;53892;43.258;-2.932;2022-11-20T03:36:23;1.05;;;0.00;;
66957;SDS011;53892;43.258;-2.932;2022-11-20T03:38:49;1.00;;;0.03;;
66957;SDS011;53892;43.258;-2.932;2022-11-20T03:41:16;0.17;;;0.00;;
66957;SDS011;53892;43.258;-2.932;2022-11-20T03:43:46;0.03;;;0.00;;
66957;SDS011;53892;43.258;-2.932;2022-11-20T03:46:12;0.57;;;0.00;;
66957;SDS011;53892;43.258;-2.932;2022-11-20T03:48:38;1.75;;;0.65;;
66957;SDS011;53892;43.258;-2.932;2022-11-20T03:53:43;0.20;;;0.10;;
66957;SDS011;53892;43.258;-2.932;2022-11-20T03:56:10;0.65;;;0.20;;
66957;SDS011;53892;43.258;-2.932;2022-11-20T03:58:37;1.05;;;0.20;;
66957;SDS011;53892;43.258;-2.932;2022-11-20T04:01:10;1.13;;;0.20;;
66957;SDS011;53892;43.258;-2.932;2022-11-20T04:03:37;0.30;;;0.20;;
66957;SDS011;53892;43.258;-2.932;2022-11-20T04:06:04;0.50;;;0.20;;
66957;SDS011;53892;43.258;-2.932;2022-11-20T04:08:31;0.30;;;0.13;;
66957;SDS011;53892;43.258;-2.932;2022-11-20T04:11:07;1.48;;;0.10;;
66957;SDS011;53892;43.258;-2.932;2022-11-20T04:13:33;0.52;;;0.10;;
66957;SDS011;53892;43.258;-2.932;2022-11-20T04:15:59;0.30;;;0.10;;
66957;SDS011;53892;43.258;-2.932;2022-11-20T04:18:25;0.50;;;0.20;;
66957;SDS011;53892;43.258;-2.932;2022-11-20T04:20:51;3.10;;;0.10;;
66957;SDS011;53892;43.258;-2.932;2022-11-20T04:23:17;0.30;;;0.10;;
66957;SDS011;53892;43.258;-2.932;2022-11-20T04:25:44;0.82;;;0.10;;
66957;SDS011;53892;43.258;-2.932;2022-11-20T04:28:10;0.73;;;0.10;;
66957;SDS011;53892;43.258;-2.932;2022-11-20T04:30:36;1.00;;;0.10;;
66957;SDS011;53892;43.258;-2.932;2022-11-20T04:33:02;2.10;;;0.20;;
66957;SDS011;53892;43.258;-2.932;2022-11-20T04:35:28;0.30;;;0.10;;
66957;SDS011;53892;43.258;-2.932;2022-11-20T04:37:54;0.20;;;0.05;;
66957;SDS011;53892;43.258;-2.932;2022-11-20T04:40:20;1.08;;;0.10;;
66957;SDS011;53892;43.258;-2.932;2022-11-20T04:42:46;0.28;;;0.10;;
66957;SDS011;53892;43.258;-2.932;2022-11-20T04:45:12;0.20;;;0.10;;
66957;SDS011;53892;43.258;-2.932;2022-11-20T04:47:38;0.35;;;0.10;;
66957;SDS011;53892;43.258;-2.932;2022-11-20T04:50:04;0.10;;;0.10;;
66957;SDS011;53892;43.258;-2.932;2022-11-20T04:52:31;0.30;;;0.10;;
66957;SDS011;53892;43.258;-2.932;2022-11-20T04:54:57;1.05;;;0.20;;
66957;SDS011;53892;43.258;-2.932;2022-11-20T04:57:23;0.30;;;0.10;;
66957;SDS011;53892;43.258;-2.932;2022-11-20T04:59:49;0.50;;;0.15;;
66957;SDS011;53892;43.258;-2.932;2022-11-20T05:02:15;0.40;;;0.13;;
66957;SDS011;53892;43.258;-2.932;2022-11-20T05:04:41;0.52;;;0.10;;
66957;SDS011;53892;43.258;-2.932;2022-11-20T05:07:07;1.50;;;0.10;;
66957;SDS011;53892;43.258;-2.932;2022-11-20T05:09:33;0.65;;;0.13;;
66957;SDS011;53892;43.258;-2.932;2022-11-20T05:11:59;0.28;;;0.20;;
66957;SDS011;53892;43.258;-2.932;2022-11-20T05:14:25;4.05;;;0.95;;
66957;SDS011;53892;43.258;-2.932;2022-11-20T05:16:52;0.10;;;0.03;;
66957;SDS011;53892;43.258;-2.932;2022-11-20T05:19:18;0.55;;;0.10;;
66957;SDS011;53892;43.258;-2.932;2022-11-20T05:21:44;0.30;;;0.10;;
66957;SDS011;53892;43.258;-2.932;2022-11-20T05:24:10;2.47;;;1.00;;
66957;SDS011;53892;43.258;-2.932;2022-11-20T05:26:36;0.20;;;0.10;;
66957;SDS011;53892;43.258;-2.932;2022-11-20T05:29:02;0.30;;;0.10;;
66957;SDS011;53892;43.258;-2.932;2022-11-20T05:31:29;0.40;;;0.10;;
66957;SDS011;53892;43.258;-2.932;2022-11-20T05:33:55;1.58;;;0.10;;
66957;SDS011;53892;43.258;-2.932;2022-11-20T05:36:22;0.52;;;0.10;;
66957;SDS011;53892;43.258;-2.932;2022-11-20T05:38:48;1.27;;;0.10;;
66957;SDS011;53892;43.258;-2.932;2022-11-20T05:41:15;1.48;;;0.10;;
66957;SDS011;53892;43.258;-2.932;2022-11-20T05:43:43;0.30;;;0.10;;
66957;SDS011;53892;43.258;-2.932;2022-11-20T05:46:11;0.40;;;0.10;;
66957;SDS011;53892;43.258;-2.932;2022-11-20T05:48:38;0.28;;;0.00;;
66957;SDS011;53892;43.258;-2.932;2022-11-20T05:51:05;0.50;;;0.10;;
66957;SDS011;53892;43.258;-2.932;2022-11-20T05:53:32;0.47;;;0.10;;
66957;SDS011;53892;43.258;-2.932;2022-11-20T05:55:59;1.58;;;0.40;;
66957;SDS011;53892;43.258;-2.932;2022-11-20T05:58:26;0.40;;;0.22;;
66957;SDS011;53892;43.258;-2.932;2022-11-20T06:00:52;0.65;;;0.20;;
66957;SDS011;53892;43.258;-2.932;2022-11-20T06:03:18;0.30;;;0.10;;
66957;SDS011;53892;43.258;-2.932;2022-11-20T06:05:44;1.45;;;0.10;;
66957;SDS011;53892;43.258;-2.932;2022-11-20T06:08:10;1.90;;;0.10;;
66957;SDS011;53892;43.258;-2.932;2022-11-20T06:10:37;0.20;;;0.10;;
66957;SDS011;53892;43.258;-2.932;2022-11-20T06:13:03;0.20;;;0.10;;
66957;SDS011;53892;43.258;-2.932;2022-11-20T06:15:29;0.43;;;0.17;;
66957;SDS011;53892;43.258;-2.932;2022-11-20T06:17:55;0.77;;;0.10;;
66957;SDS011;53892;43.258;-2.932;2022-11-20T06:20:21;0.20;;;0.10;;
66957;SDS011;53892;43.258;-2.932;2022-11-20T06:22:48;0.30;;;0.10;;
66957;SDS011;53892;43.258;-2.932;2022-11-20T06:25:14;0.20;;;0.10;;
66957;SDS011;53892;43.258;-2.932;2022-11-20T06:27:40;0.30;;;0.10;;
66957;SDS011;53892;43.258;-2.932;2022-11-20T06:30:06;0.40;;;0.20;;
66957;SDS011;53892;43.258;-2.932;2022-11-20T06:32:32;2.03;;;0.20;;
66957;SDS011;53892;43.258;-2.932;2022-11-20T06:34:59;0.25;;;0.10;;
66957;SDS011;53892;43.258;-2.932;2022-11-20T06:37:25;0.45;;;0.15;;
66957;SDS011;53892;43.258;-2.932;2022-11-20T06:39:51;0.32;;;0.13;;
66957;SDS011;53892;43.258;-2.932;2022-11-20T06:42:17;0.60;;;0.30;;
66957;SDS011;53892;43.258;-2.932;2022-11-20T06:44:43;0.10;;;0.05;;
66957;SDS011;53892;43.258;-2.932;2022-11-20T06:47:09;1.13;;;0.20;;
66957;SDS011;53892;43.258;-2.932;2022-11-20T06:49:36;0.20;;;0.00;;
66957;SDS011;53892;43.258;-2.932;2022-11-20T06:52:03;0.60;;;0.00;;
66957;SDS011;53892;43.258;-2.932;2022-11-20T06:54:29;0.20;;;0.10;;
66957;SDS011;53892;43.258;-2.932;2022-11-20T06:56:56;0.88;;;0.00;;
66957;SDS011;53892;43.258;-2.932;2022-11-20T06:59:22;0.22;;;0.05;;
66957;SDS011;53892;43.258;-2.932;2022-11-20T07:01:48;0.30;;;0.00;;
66957;SDS011;53892;43.258;-2.932;2022-11-20T07:04:14;1.25;;;0.00;;
66957;SDS011;53892;43.258;-2.932;2022-11-20T07:06:40;0.05;;;0.00;;
66957;SDS011;53892;43.258;-2.932;2022-11-20T07:09:06;0.50;;;0.00;;
66957;SDS011;53892;43.258;-2.932;2022-11-20T07:11:32;2.38;;;0.03;;
66957;SDS011;53892;43.258;-2.932;2022-11-20T07:13:58;1.67;;;0.05;;
66957;SDS011;53892;43.258;-2.932;2022-11-20T07:16:25;0.47;;;0.00;;
66957;SDS011;53892;43.258;-2.932;2022-11-20T07:18:51;1.20;;;0.30;;
66957;SDS011;53892;43.258;-2.932;2022-11-20T07:21:17;0.20;;;0.03;;
66957;SDS011;53892;43.258;-2.932;2022-11-20T07:23:43;0.35;;;0.10;;
66957;SDS011;53892;43.258;-2.932;2022-11-20T07:26:10;0.65;;;0.10;;
66957;SDS011;53892;43.258;-2.932;2022-11-20T07:28:37;0.17;;;0.10;;
66957;SDS011;53892;43.258;-2.932;2022-11-20T07:31:03;2.67;;;0.10;;
66957;SDS011;53892;43.258;-2.932;2022-11-20T07:33:30;2.33;;;0.20;;
66957;SDS011;53892;43.258;-2.932;2022-11-20T07:35:58;1.15;;;0.20;;
66957;SDS011;53892;43.258;-2.932;2022-11-20T07:38:25;1.10;;;0.10;;
66957;SDS011;53892;43.258;-2.932;2022-11-20T07:40:57;0.55;;;0.20;;
66957;SDS011;53892;43.258;-2.932;2022-11-20T07:43:26;0.93;;;0.20;;
66957;SDS011;53892;43.258;-2.932;2022-11-20T07:45:56;3.05;;;0.30;;
66957;SDS011;53892;43.258;-2.932;2022-11-20T07:48:22;1.17;;;0.30;;
66957;SDS011;53892;43.258;-2.932;2022-11-20T07:50:49;3.85;;;0.30;;
66957;SDS011;53892;43.258;-2.932;2022-11-20T07:53:15;1.48;;;0.30;;
66957;SDS011;53892;43.258;-2.932;2022-11-20T07:55:45;2.00;;;0.32;;
66957;SDS011;53892;43.258;-2.932;2022-11-20T07:58:12;0.93;;;0.28;;
66957;SDS011;53892;43.258;-2.932;2022-11-20T08:00:39;0.40;;;0.20;;
66957;SDS011;53892;43.258;-2.932;2022-11-20T08:03:05;0.63;;;0.20;;
66957;SDS011;53892;43.258;-2.932;2022-11-20T08:05:31;9.93;;;0.77;;
66957;SDS011;53892;43.258;-2.932;2022-11-20T08:07:58;7.15;;;0.60;;
66957;SDS011;53892;43.258;-2.932;2022-11-20T08:10:24;6.40;;;0.50;;
66957;SDS011;53892;43.258;-2.932;2022-11-20T08:12:50;5.60;;;1.08;;
66957;SDS011;53892;43.258;-2.932;2022-11-20T08:15:35;21.48;;;1.15;;
66957;SDS011;53892;43.258;-2.932;2022-11-20T08:18:06;18.90;;;1.23;;
66957;SDS011;53892;43.258;-2.932;2022-11-20T08:20:33;22.33;;;2.15;;
66957;SDS011;53892;43.258;-2.932;2022-11-20T08:23:00;17.17;;;1.10;;
66957;SDS011;53892;43.258;-2.932;2022-11-20T08:25:27;12.48;;;0.75;;
66957;SDS011;53892;43.258;-2.932;2022-11-20T08:27:53;16.92;;;0.95;;
66957;SDS011;53892;43.258;-2.932;2022-11-20T08:30:20;17.02;;;1.60;;
66957;SDS011;53892;43.258;-2.932;2022-11-20T08:32:46;8.93;;;0.50;;
66957;SDS011;53892;43.258;-2.932;2022-11-20T08:35:12;16.50;;;0.65;;
66957;SDS011;53892;43.258;-2.932;2022-11-20T08:37:38;7.20;;;0.73;;
66957;SDS011;53892;43.258;-2.932;2022-11-20T08:40:08;13.73;;;0.75;;
66957;SDS011;53892;43.258;-2.932;2022-11-20T08:42:34;12.50;;;1.23;;
66957;SDS011;53892;43.258;-2.932;2022-11-20T08:45:00;23.77;;;1.17;;
66957;SDS011;53892;43.258;-2.932;2022-11-20T08:47:26;17.75;;;1.65;;
66957;SDS011;53892;43.258;-2.932;2022-11-20T08:49:52;13.85;;;0.75;;
66957;SDS011;53892;43.258;-2.932;2022-11-20T08:52:18;15.35;;;1.08;;
66957;SDS011;53892;43.258;-2.932;2022-11-20T08:54:45;20.58;;;2.05;;
66957;SDS011;53892;43.258;-2.932;2022-11-20T08:57:11;20.90;;;1.33;;
66957;SDS011;53892;43.258;-2.932;2022-11-20T08:59:37;26.00;;;1.77;;
66957;SDS011;53892;43.258;-2.932;2022-11-20T09:02:04;18.73;;;1.25;;
66957;SDS011;53892;43.258;-2.932;2022-11-20T09:04:30;16.27;;;1.95;;
66957;SDS011;53892;43.258;-2.932;2022-11-20T09:06:56;23.40;;;2.63;;
66957;SDS011;53892;43.258;-2.932;2022-11-20T09:09:22;15.15;;;1.65;;
66957;SDS011;53892;43.258;-2.932;2022-11-20T09:11:49;26.25;;;1.85;;
66957;SDS011;53892;43.258;-2.932;2022-11-20T09:14:15;16.60;;;1.65;;
66957;SDS011;53892;43.258;-2.932;2022-11-20T09:16:41;23.25;;;1.45;;
66957;SDS011;53892;43.258;-2.932;2022-11-20T09:19:07;22.55;;;2.58;;
66957;SDS011;53892;43.258;-2.932;2022-11-20T09:21:33;17.30;;;1.98;;
66957;SDS011;53892;43.258;-2.932;2022-11-20T09:23:59;17.45;;;1.13;;
66957;SDS011;53892;43.258;-2.932;2022-11-20T09:26:25;13.50;;;1.20;;
66957;SDS011;53892;43.258;-2.932;2022-11-20T09:28:51;17.33;;;1.30;;
66957;SDS011;53892;43.258;-2.932;2022-11-20T09:31:27;11.48;;;0.98;;
66957;SDS011;53892;43.258;-2.932;2022-11-20T09:33:53;23.75;;;1.50;;
66957;SDS011;53892;43.258;-2.932;2022-11-20T09:36:19;23.45;;;1.80;;
66957;SDS011;53892;43.258;-2.932;2022-11-20T09:38:45;17.55;;;1.15;;
66957;SDS011;53892;43.258;-2.932;2022-11-20T09:41:24;21.67;;;1.27;;
66957;SDS011;53892;43.258;-2.932;2022-11-20T09:44:19;25.08;;;2.28;;
66957;SDS011;53892;43.258;-2.932;2022-11-20T09:47:15;26.52;;;2.00;;
66957;SDS011;53892;43.258;-2.932;2022-11-20T09:52:22;28.33;;;2.30;;
66957;SDS011;53892;43.258;-2.932;2022-11-20T09:54:53;25.83;;;4.50;;
66957;SDS011;53892;43.258;-2.932;2022-11-20T09:57:21;24.70;;;2.47;;
66957;SDS011;53892;43.258;-2.932;2022-11-20T10:04:51;17.98;;;1.70;;
66957;SDS011;53892;43.258;-2.932;2022-11-20T10:07:21;15.13;;;1.05;;
66957;SDS011;53892;43.258;-2.932;2022-11-20T10:09:58;26.92;;;2.95;;
66957;SDS011;53892;43.258;-2.932;2022-11-20T10:15:16;15.88;;;0.70;;
66957;SDS011;53892;43.258;-2.932;2022-11-20T10:25:47;22.88;;;1.90;;
66957;SDS011;53892;43.258;-2.932;2022-11-20T10:30:57;10.70;;;0.88;;
66957;SDS011;53892;43.258;-2.932;2022-11-20T10:33:25;11.63;;;1.30;;
66957;SDS011;53892;43.258;-2.932;2022-11-20T10:35:55;7.03;;;0.40;;
66957;SDS011;53892;43.258;-2.932;2022-11-20T10:38:23;9.20;;;0.40;;
66957;SDS011;53892;43.258;-2.932;2022-11-20T10:40:52;13.90;;;0.70;;
66957;SDS011;53892;43.258;-2.932;2022-11-20T10:43:39;15.50;;;1.70;;
66957;SDS011;53892;43.258;-2.932;2022-11-20T10:46:10;17.55;;;2.03;;
66957;SDS011;53892;43.258;-2.932;2022-11-20T10:48:40;9.15;;;0.77;;
66957;SDS011;53892;43.258;-2.932;2022-11-20T10:51:12;16.77;;;1.20;;
66957;SDS011;53892;43.258;-2.932;2022-11-20T10:56:07;15.43;;;0.80;;
66957;SDS011;53892;43.258;-2.932;2022-11-20T10:58:38;16.67;;;2.17;;
66957;SDS011;53892;43.258;-2.932;2022-11-20T11:01:18;8.93;;;1.45;;
66957;SDS011;53892;43.258;-2.932;2022-11-20T11:03:46;24.05;;;2.00;;
66957;SDS011;53892;43.258;-2.932;2022-11-20T11:06:25;10.07;;;1.58;;
66957;SDS011;53892;43.258;-2.932;2022-11-20T11:08:55;16.98;;;1.13;;
66957;SDS011;53892;43.258;-2.932;2022-11-20T11:11:24;10.55;;;1.70;;
66957;SDS011;53892;43.258;-2.932;2022-11-20T11:13:51;14.93;;;1.30;;
66957;SDS011;53892;43.258;-2.932;2022-11-20T11:16:25;14.38;;;1.58;;
66957;SDS011;53892;43.258;-2.932;2022-11-20T11:19:02;22.40;;;1.80;;
66957;SDS011;53892;43.258;-2.932;2022-11-20T11:21:28;15.30;;;1.38;;
66957;SDS011;53892;43.258;-2.932;2022-11-20T11:23:59;12.20;;;1.35;;
66957;SDS011;53892;43.258;-2.932;2022-11-20T11:26:26;13.88;;;1.05;;
66957;SDS011;53892;43.258;-2.932;2022-11-20T11:28:56;9.52;;;0.77;;
66957;SDS011;53892;43.258;-2.932;2022-11-20T11:33:51;10.48;;;2.10;;
66957;SDS011;53892;43.258;-2.932;2022-11-20T11:36:18;20.77;;;1.10;;
66957;SDS011;53892;43.258;-2.932;2022-11-20T11:38:45;26.35;;;2.67;;
66957;SDS011;53892;43.258;-2.932;2022-11-20T11:41:16;21.15;;;1.00;;
66957;SDS011;53892;43.258;-2.932;2022-11-20T11:43:49;12.30;;;1.13;;
66957;SDS011;53892;43.258;-2.932;2022-11-20T11:46:35;18.05;;;1.65;;
66957;SDS011;53892;43.258;-2.932;2022-11-20T11:54:00;21.58;;;2.28;;
66957;SDS011;53892;43.258;-2.932;2022-11-20T11:56:30;20.23;;;1.58;;
66957;SDS011;53892;43.258;-2.932;2022-11-20T11:58:56;18.55;;;2.22;;
66957;SDS011;53892;43.258;-2.932;2022-11-20T12:04:16;19.92;;;1.10;;
66957;SDS011;53892;43.258;-2.932;2022-11-20T12:06:42;19.45;;;1.80;;
66957;SDS011;53892;43.258;-2.932;2022-11-20T12:09:09;22.00;;;1.67;;
66957;SDS011;53892;43.258;-2.932;2022-11-20T12:14:32;11.52;;;1.23;;
66957;SDS011;53892;43.258;-2.932;2022-11-20T12:17:00;12.77;;;1.10;;
66957;SDS011;53892;43.258;-2.932;2022-11-20T12:19:28;13.10;;;1.80;;
66957;SDS011;53892;43.258;-2.932;2022-11-20T12:21:58;15.98;;;1.25;;
66957;SDS011;53892;43.258;-2.932;2022-11-20T12:31:59;14.85;;;2.20;;
66957;SDS011;53892;43.258;-2.932;2022-11-20T12:34:37;19.40;;;1.45;;
66957;SDS011;53892;43.258;-2.932;2022-11-20T12:37:19;18.33;;;1.75;;
66957;SDS011;53892;43.258;-2.932;2022-11-20T12:39:50;22.10;;;1.80;;
66957;SDS011;53892;43.258;-2.932;2022-11-20T13:00:42;17.02;;;1.25;;
66957;SDS011;53892;43.258;-2.932;2022-11-20T13:08:24;15.75;;;1.23;;
66957;SDS011;53892;43.258;-2.932;2022-11-20T13:11:14;17.02;;;2.10;;
66957;SDS011;53892;43.258;-2.932;2022-11-20T13:13:57;23.23;;;2.28;;
66957;SDS011;53892;43.258;-2.932;2022-11-20T13:19:09;10.50;;;0.75;;
66957;SDS011;53892;43.258;-2.932;2022-11-20T13:21:38;9.82;;;1.17;;
66957;SDS011;53892;43.258;-2.932;2022-11-20T13:24:19;8.95;;;0.70;;
66957;SDS011;53892;43.258;-2.932;2022-11-20T13:29:36;10.55;;;1.20;;
66957;SDS011;53892;43.258;-2.932;2022-11-20T13:32:11;12.38;;;1.42;;
66957;SDS011;53892;43.258;-2.932;2022-11-20T13:34:39;16.63;;;1.33;;
66957;SDS011;53892;43.258;-2.932;2022-11-20T13:40:04;8.68;;;1.20;;
66957;SDS011;53892;43.258;-2.932;2022-11-20T13:42:31;15.73;;;1.02;;
66957;SDS011;53892;43.258;-2.932;2022-11-20T13:45:02;13.88;;;1.02;;
66957;SDS011;53892;43.258;-2.932;2022-11-20T13:47:34;21.52;;;1.98;;
66957;SDS011;53892;43.258;-2.932;2022-11-20T13:50:02;15.23;;;1.55;;
66957;SDS011;53892;43.258;-2.932;2022-11-20T13:55:48;15.23;;;1.00;;
66957;SDS011;53892;43.258;-2.932;2022-11-20T13:58:15;14.80;;;2.13;;
66957;SDS011;53892;43.258;-2.932;2022-11-20T14:01:08;13.27;;;1.00;;
66957;SDS011;53892;43.258;-2.932;2022-11-20T14:03:33;12.13;;;0.73;;
66957;SDS011;53892;43.258;-2.932;2022-11-20T14:06:03;8.63;;;0.80;;
66957;SDS011;53892;43.258;-2.932;2022-11-20T14:11:06;15.82;;;1.30;;
66957;SDS011;53892;43.258;-2.932;2022-11-20T14:13:32;11.93;;;1.35;;
66957;SDS011;53892;43.258;-2.932;2022-11-20T14:15:59;6.43;;;0.80;;
66957;SDS011;53892;43.258;-2.932;2022-11-20T14:18:25;10.30;;;0.82;;
66957;SDS011;53892;43.258;-2.932;2022-11-20T14:20:52;8.90;;;0.85;;
66957;SDS011;53892;43.258;-2.932;2022-11-20T14:23:28;7.63;;;0.55;;
66957;SDS011;53892;43.258;-2.932;2022-11-20T14:25:55;9.20;;;0.85;;
66957;SDS011;53892;43.258;-2.932;2022-11-20T14:28:28;7.35;;;0.50;;
66957;SDS011;53892;43.258;-2.932;2022-11-20T14:30:55;15.63;;;0.98;;
66957;SDS011;53892;43.258;-2.932;2022-11-20T14:33:22;8.68;;;0.68;;
66957;SDS011;53892;43.258;-2.932;2022-11-20T14:35:56;7.47;;;0.77;;
66957;SDS011;53892;43.258;-2.932;2022-11-20T14:38:29;16.45;;;0.82;;
66957;SDS011;53892;43.258;-2.932;2022-11-20T14:43:57;13.40;;;1.08;;
66957;SDS011;53892;43.258;-2.932;2022-11-20T14:49:13;7.00;;;1.00;;
66957;SDS011;53892;43.258;-2.932;2022-11-20T14:51:40;7.72;;;0.75;;
66957;SDS011;53892;43.258;-2.932;2022-11-20T14:56:38;11.52;;;1.10;;
66957;SDS011;53892;43.258;-2.932;2022-11-20T14:59:04;4.88;;;0.60;;
66957;SDS011;53892;43.258;-2.932;2022-11-20T15:01:31;9.70;;;1.05;;
66957;SDS011;53892;43.258;-2.932;2022-11-20T15:04:04;8.93;;;1.20;;
66957;SDS011;53892;43.258;-2.932;2022-11-20T15:06:31;10.30;;;1.20;;
66957;SDS011;53892;43.258;-2.932;2022-11-20T15:08:57;8.13;;;1.15;;
66957;SDS011;53892;43.258;-2.932;2022-11-20T15:11:31;8.30;;;0.85;;
66957;SDS011;53892;43.258;-2.932;2022-11-20T15:13:58;14.75;;;1.17;;
66957;SDS011;53892;43.258;-2.932;2022-11-20T15:16:27;10.82;;;1.10;;
66957;SDS011;53892;43.258;-2.932;2022-11-20T15:18:54;11.35;;;0.57;;
66957;SDS011;53892;43.258;-2.932;2022-11-20T15:21:20;26.73;;;1.85;;
66957;SDS011;53892;43.258;-2.932;2022-11-20T15:23:46;12.50;;;0.98;;
66957;SDS011;53892;43.258;-2.932;2022-11-20T15:26:13;2.85;;;0.47;;
66957;SDS011;53892;43.258;-2.932;2022-11-20T15:28:44;11.38;;;0.77;;
66957;SDS011;53892;43.258;-2.932;2022-11-20T15:31:12;13.70;;;0.73;;
66957;SDS011;53892;43.258;-2.932;2022-11-20T15:33:39;10.88;;;0.60;;
66957;SDS011;53892;43.258;-2.932;2022-11-20T15:36:05;4.88;;;0.65;;
66957;SDS011;53892;43.258;-2.932;2022-11-20T15:38:31;10.00;;;1.00;;
66957;SDS011;53892;43.258;-2.932;2022-11-20T15:40:57;11.93;;;0.80;;
66957;SDS011;53892;43.258;-2.932;2022-11-20T15:43:23;19.90;;;0.60;;
66957;SDS011;53892;43.258;-2.932;2022-11-20T15:45:53;12.18;;;0.50;;
66957;SDS011;53892;43.258;-2.932;2022-11-20T15:48:27;10.23;;;1.00;;
66957;SDS011;53892;43.258;-2.932;2022-11-20T15:51:02;9.63;;;0.50;;
66957;SDS011;53892;43.258;-2.932;2022-11-20T15:53:29;8.65;;;1.25;;
66957;SDS011;53892;43.258;-2.932;2022-11-20T15:55:55;8.73;;;1.00;;
66957;SDS011;53892;43.258;-2.932;2022-11-20T15:58:21;9.63;;;0.70;;
66957;SDS011;53892;43.258;-2.932;2022-11-20T16:00:51;7.15;;;0.50;;
66957;SDS011;53892;43.258;-2.932;2022-11-20T16:03:17;5.15;;;0.98;;
66957;SDS011;53892;43.258;-2.932;2022-11-20T16:05:44;10.70;;;0.85;;
66957;SDS011;53892;43.258;-2.932;2022-11-20T16:08:10;12.70;;;0.50;;
66957;SDS011;53892;43.258;-2.932;2022-11-20T16:10:36;7.97;;;0.55;;
66957;SDS011;53892;43.258;-2.932;2022-11-20T16:13:03;7.22;;;0.60;;
66957;SDS011;53892;43.258;-2.932;2022-11-20T16:15:52;11.98;;;1.20;;
66957;SDS011;53892;43.258;-2.932;2022-11-20T16:18:20;6.53;;;0.43;;